createdAt,value
2023-02-27T00:02:34.590Z,97.81
2023-02-27T00:05:42.199Z,97.71
2023-02-27T00:08:49.570Z,97.91
2023-02-27T00:11:56.489Z,97.91
2023-02-27T00:15:04.140Z,97.97
2023-02-27T00:18:11.137Z,97.97
2023-02-27T00:21:18.584Z,97.87
2023-02-27T00:24:26.178Z,97.66
2023-02-27T00:27:33.270Z,97.60
2023-02-27T00:30:41.041Z,97.60
2023-02-27T00:33:48.758Z,97.49
2023-02-27T00:36:55.836Z,97.60
2023-02-27T00:40:03.616Z,97.91
2023-02-27T00:43:11.203Z,98.07
2023-02-27T00:46:18.271Z,98.27
2023-02-27T00:49:25.591Z,98.23
2023-02-27T00:52:32.756Z,98.17
2023-02-27T00:55:39.831Z,98.07
2023-02-27T00:58:47.445Z,97.96
2023-02-27T01:01:54.405Z,97.85
2023-02-27T01:05:01.805Z,97.64
2023-02-27T01:08:09.748Z,97.64
2023-02-27T01:11:10.614Z,97.64
2023-02-27T01:14:18.341Z,97.58
2023-02-27T01:17:25.717Z,97.58
2023-02-27T01:20:33.428Z,97.58
2023-02-27T01:23:41.233Z,97.58
2023-02-27T01:26:48.814Z,97.37
2023-02-27T01:29:56.498Z,97.37
2023-02-27T01:33:04.034Z,97.37
2023-02-27T01:36:11.355Z,97.37
2023-02-27T01:39:18.887Z,97.37
2023-02-27T01:42:26.996Z,97.41
2023-02-27T01:45:34.356Z,97.31
2023-02-27T01:48:42.126Z,97.31
2023-02-27T01:51:49.689Z,97.20
2023-02-27T01:54:57.467Z,97.20
2023-02-27T01:58:05.560Z,97.20
2023-02-27T02:01:12.883Z,97.09
2023-02-27T02:04:20.847Z,97.31
2023-02-27T02:07:28.551Z,97.41
2023-02-27T02:10:36.403Z,97.35
2023-02-27T02:13:43.731Z,97.35
2023-02-27T02:16:51.479Z,97.35
2023-02-27T02:19:59.436Z,97.45
2023-02-27T02:23:06.879Z,97.88
2023-02-27T02:26:15.032Z,98.19
2023-02-27T02:29:23.165Z,98.30
2023-02-27T02:32:30.703Z,98.30
2023-02-27T02:35:38.746Z,98.30
2023-02-27T02:38:46.338Z,98.30
2023-02-27T02:41:53.986Z,98.41
2023-02-27T02:45:01.582Z,98.61
2023-02-27T02:48:09.401Z,98.93
2023-02-27T02:51:17.079Z,99.15
2023-02-27T02:54:24.917Z,99.46
2023-02-27T02:57:32.806Z,99.67
2023-02-27T03:00:39.969Z,99.88
2023-02-27T03:03:47.714Z,99.99
2023-02-27T03:06:55.678Z,99.99
2023-02-27T03:10:03.096Z,99.99
2023-02-27T03:13:11.022Z,99.99
2023-02-27T03:16:18.566Z,99.99
2023-02-27T03:19:26.187Z,99.99
2023-02-27T03:22:34.143Z,99.99
2023-02-27T03:25:41.434Z,99.99
2023-02-27T03:28:48.776Z,99.99
2023-02-27T03:31:56.555Z,99.99
2023-02-27T03:35:04.550Z,99.99
2023-02-27T03:38:12.192Z,99.99
2023-02-27T03:41:20.848Z,99.99
2023-02-27T03:44:28.788Z,99.99
2023-02-27T03:47:36.081Z,99.99
2023-02-27T03:50:43.634Z,99.99
2023-02-27T03:53:51.572Z,99.99
2023-02-27T03:56:58.834Z,99.99
2023-02-27T04:00:06.866Z,99.93
2023-02-27T04:03:14.804Z,99.82
2023-02-27T04:06:22.177Z,99.72
2023-02-27T04:09:30.232Z,99.66
2023-02-27T04:12:37.769Z,99.24
2023-02-27T04:15:45.539Z,99.44
2023-02-27T04:18:55.197Z,99.24
2023-02-27T04:21:53.573Z,99.13
2023-02-27T04:25:01.371Z,99.13
2023-02-27T04:28:08.915Z,98.92
2023-02-27T04:31:16.941Z,98.81
2023-02-27T04:34:24.564Z,98.75
2023-02-27T04:37:32.371Z,98.65
2023-02-27T04:40:40.331Z,98.54
2023-02-27T04:43:47.574Z,98.43
2023-02-27T04:46:55.504Z,98.43
2023-02-27T04:50:03.244Z,98.33
2023-02-27T04:53:10.422Z,98.33
2023-02-27T04:56:18.519Z,98.33
2023-02-27T04:59:25.884Z,98.22
2023-02-27T05:02:33.903Z,98.22
2023-02-27T05:05:41.955Z,98.22
2023-02-27T05:08:49.253Z,98.22
2023-02-27T05:11:57.361Z,97.95
2023-02-27T05:15:05.473Z,98.16
2023-02-27T05:18:12.959Z,98.27
2023-02-27T05:21:20.904Z,98.27
2023-02-27T05:24:28.572Z,98.27
2023-02-27T05:27:36.291Z,98.16
2023-02-27T05:30:43.836Z,98.06
2023-02-27T05:33:51.581Z,98.06
2023-02-27T05:36:59.142Z,97.95
2023-02-27T05:40:07.020Z,97.99
2023-02-27T05:43:14.751Z,98.16
2023-02-27T05:46:22.009Z,98.16
2023-02-27T05:49:29.582Z,98.06
2023-02-27T05:52:37.565Z,98.06
2023-02-27T05:55:45.180Z,97.95
2023-02-27T05:58:52.952Z,97.95
2023-02-27T06:02:00.979Z,97.99
2023-02-27T06:05:08.191Z,97.95
2023-02-27T06:08:16.198Z,97.95
2023-02-27T06:11:24.176Z,97.85
2023-02-27T06:14:31.392Z,97.85
2023-02-27T06:17:39.208Z,97.95
2023-02-27T06:20:46.857Z,97.95
2023-02-27T06:23:54.546Z,98.06
2023-02-27T06:27:02.728Z,98.37
2023-02-27T06:30:10.578Z,98.54
2023-02-27T06:33:18.287Z,98.86
2023-02-27T06:36:26.534Z,98.92
2023-02-27T06:39:34.468Z,99.02
2023-02-27T06:42:42.262Z,99.13
2023-02-27T06:45:49.755Z,99.55
2023-02-27T06:48:57.634Z,99.87
2023-02-27T06:52:05.321Z,99.99
2023-02-27T06:55:12.819Z,99.99
2023-02-27T06:58:20.811Z,99.99
2023-02-27T07:01:28.188Z,99.99
2023-02-27T07:04:36.090Z,99.99
2023-02-27T07:07:43.938Z,99.99
2023-02-27T07:10:51.156Z,99.99
2023-02-27T07:13:59.148Z,99.99
2023-02-27T07:17:06.801Z,99.99
2023-02-27T07:20:14.834Z,99.99
2023-02-27T07:23:22.490Z,99.99
2023-02-27T07:26:30.202Z,99.99
2023-02-27T07:29:38.088Z,99.99
2023-02-27T07:32:45.682Z,99.99
2023-02-27T07:35:53.392Z,99.99
2023-02-27T07:39:01.296Z,99.99
2023-02-27T07:42:08.492Z,99.99
2023-02-27T07:45:16.705Z,99.99
2023-02-27T07:48:25.287Z,99.99
2023-02-27T07:51:32.578Z,99.99
2023-02-27T07:54:40.561Z,99.99
2023-02-27T07:57:47.996Z,99.99
2023-02-27T08:00:55.683Z,99.97
2023-02-27T08:04:03.571Z,99.71
2023-02-27T08:07:10.995Z,99.30
2023-02-27T08:10:18.633Z,99.04
2023-02-27T08:13:48.595Z,98.79
2023-02-27T08:16:32.365Z,98.47
2023-02-27T08:19:40.091Z,98.43
2023-02-27T08:22:47.502Z,98.32
2023-02-27T08:25:55.478Z,98.07
2023-02-27T08:29:03.051Z,97.86
2023-02-27T08:32:10.434Z,97.55
2023-02-27T08:35:18.160Z,97.19
2023-02-27T08:38:26.498Z,96.88
2023-02-27T08:41:33.741Z,96.56
2023-02-27T08:44:41.712Z,95.93
2023-02-27T08:47:49.194Z,95.83
2023-02-27T08:50:57.943Z,95.41
2023-02-27T08:54:05.824Z,95.05
2023-02-27T08:57:13.580Z,94.84
2023-02-27T09:00:21.152Z,94.90
2023-02-27T09:03:28.901Z,95.32
2023-02-27T09:06:36.694Z,95.28
2023-02-27T09:09:44.447Z,94.92
2023-02-27T09:12:51.993Z,93.57
2023-02-27T09:16:00.233Z,93.04
2023-02-27T09:19:07.517Z,92.31
2023-02-27T09:22:15.277Z,92.63
2023-02-27T09:25:23.238Z,92.06
2023-02-27T09:28:30.414Z,91.89
2023-02-27T09:31:38.104Z,92.31
2023-02-27T09:34:46.014Z,92.63
2023-02-27T09:37:53.275Z,93.10
2023-02-27T09:41:01.128Z,93.21
2023-02-27T09:44:09.610Z,93.00
2023-02-27T09:47:16.922Z,92.79
2023-02-27T09:50:24.754Z,92.69
2023-02-27T09:53:32.655Z,91.85
2023-02-27T09:56:39.829Z,91.85
2023-02-27T09:59:47.687Z,92.16
2023-02-27T10:02:55.442Z,92.27
2023-02-27T10:06:03.079Z,91.29
2023-02-27T10:09:10.750Z,90.66
2023-02-27T10:12:18.389Z,90.77
2023-02-27T10:15:25.822Z,90.31
2023-02-27T10:18:33.436Z,89.37
2023-02-27T10:21:41.495Z,88.43
2023-02-27T10:24:48.924Z,88.60
2023-02-27T10:27:56.354Z,87.55
2023-02-27T10:31:03.987Z,87.04
2023-02-27T10:34:11.446Z,87.45
2023-02-27T10:37:18.897Z,86.47
2023-02-27T10:40:26.817Z,87.83
2023-02-27T10:43:34.040Z,86.65
2023-02-27T10:46:41.952Z,85.35
2023-02-27T10:49:49.904Z,86.25
2023-02-27T10:52:57.127Z,84.23
2023-02-27T10:56:05.042Z,81.84
2023-02-27T10:59:12.562Z,81.49
2023-02-27T11:02:19.664Z,81.15
2023-02-27T11:05:27.618Z,81.01
2023-02-27T11:08:35.029Z,79.76
2023-02-27T11:11:42.484Z,79.24
2023-02-27T11:14:50.540Z,79.34
2023-02-27T11:17:58.013Z,81.01
2023-02-27T11:21:05.519Z,81.90
2023-02-27T11:24:13.066Z,78.72
2023-02-27T11:27:20.960Z,78.82
2023-02-27T11:30:28.743Z,78.23
2023-02-27T11:33:36.193Z,80.73
2023-02-27T11:36:44.074Z,80.59
2023-02-27T11:39:51.206Z,78.58
2023-02-27T11:42:59.285Z,79.06
2023-02-27T11:46:23.558Z,79.65
2023-02-27T11:49:11.439Z,82.03
2023-02-27T11:52:19.362Z,77.15
2023-02-27T11:55:27.272Z,75.09
2023-02-27T11:58:34.642Z,76.88
2023-02-27T12:01:42.594Z,77.26
2023-02-27T12:04:49.999Z,76.02
2023-02-27T12:07:58.038Z,75.81
2023-02-27T12:11:13.863Z,75.32
2023-02-27T12:14:10.300Z,75.74
2023-02-27T12:17:17.796Z,74.88
2023-02-27T12:20:25.291Z,76.23
2023-02-27T12:23:33.203Z,75.57
2023-02-27T12:26:41.401Z,75.92
2023-02-27T12:29:48.579Z,76.95
2023-02-27T12:32:56.519Z,77.58
2023-02-27T12:36:04.129Z,78.23
2023-02-27T12:39:11.238Z,75.85
2023-02-27T12:42:19.129Z,76.26
2023-02-27T12:45:26.616Z,76.02
2023-02-27T12:48:34.232Z,76.64
2023-02-27T12:51:41.867Z,76.33
2023-02-27T12:54:49.820Z,75.98
2023-02-27T12:57:57.240Z,75.46
2023-02-27T13:01:04.896Z,74.67
2023-02-27T13:04:13.135Z,75.36
2023-02-27T13:07:20.760Z,74.63
2023-02-27T13:10:28.713Z,72.60
2023-02-27T13:13:36.457Z,73.18
2023-02-27T13:16:43.769Z,73.18
2023-02-27T13:19:51.770Z,75.02
2023-02-27T13:23:00.741Z,74.05
2023-02-27T13:26:08.078Z,72.74
2023-02-27T13:29:15.931Z,73.36
2023-02-27T13:32:32.747Z,72.84
2023-02-27T13:35:28.299Z,73.77
2023-02-27T13:38:36.021Z,73.05
2023-02-27T13:41:43.522Z,73.88
2023-02-27T13:44:51.163Z,72.05
2023-02-27T13:47:58.988Z,73.70
2023-02-27T13:51:06.186Z,74.32
2023-02-27T13:54:14.161Z,74.81
2023-02-27T13:57:21.611Z,73.15
2023-02-27T14:00:29.296Z,74.50
2023-02-27T14:03:36.716Z,74.53
2023-02-27T14:06:44.187Z,72.46
2023-02-27T14:09:52.310Z,72.80
2023-02-27T14:12:59.609Z,74.15
2023-02-27T14:16:09.263Z,74.11
2023-02-27T14:19:07.674Z,73.08
2023-02-27T14:22:14.827Z,72.98
2023-02-27T14:25:23.140Z,74.22
2023-02-27T14:28:30.648Z,75.26
2023-02-27T14:31:38.381Z,75.36
2023-02-27T14:34:46.246Z,75.15
2023-02-27T14:37:53.753Z,73.70
2023-02-27T14:41:01.330Z,74.22
2023-02-27T14:44:09.016Z,74.43
2023-02-27T14:47:16.979Z,72.46
2023-02-27T14:50:24.452Z,71.04
2023-02-27T14:53:32.012Z,70.21
2023-02-27T14:56:39.946Z,70.42
2023-02-27T14:59:47.224Z,70.42
2023-02-27T15:02:55.204Z,70.97
2023-02-27T15:06:02.945Z,71.28
2023-02-27T15:09:10.186Z,71.08
2023-02-27T15:12:17.887Z,71.70
2023-02-27T15:15:25.800Z,71.91
2023-02-27T15:18:33.060Z,72.32
2023-02-27T15:21:40.805Z,72.42
2023-02-27T15:24:50.478Z,72.94
2023-02-27T15:27:58.246Z,72.01
2023-02-27T15:31:06.299Z,72.63
2023-02-27T15:34:13.761Z,73.15
2023-02-27T15:37:21.435Z,73.49
2023-02-27T15:40:28.642Z,74.43
2023-02-27T15:43:36.381Z,73.60
2023-02-27T15:46:44.071Z,74.22
2023-02-27T15:49:51.216Z,74.05
2023-02-27T15:52:59.274Z,73.43
2023-02-27T15:56:07.201Z,73.53
2023-02-27T15:59:14.457Z,74.26
2023-02-27T16:02:21.957Z,74.39
2023-02-27T16:05:29.504Z,75.22
2023-02-27T16:08:36.922Z,75.98
2023-02-27T16:11:44.983Z,76.92
2023-02-27T16:14:52.502Z,76.75
2023-02-27T16:18:00.037Z,77.06
2023-02-27T16:21:07.212Z,78.76
2023-02-27T16:24:15.023Z,78.76
2023-02-27T16:27:22.691Z,80.36
2023-02-27T16:30:30.278Z,81.19
2023-02-27T16:33:38.194Z,81.54
2023-02-27T16:36:45.693Z,81.65
2023-02-27T16:39:53.194Z,82.17
2023-02-27T16:43:00.993Z,82.51
2023-02-27T16:46:08.234Z,82.93
2023-02-27T16:49:20.017Z,83.45
2023-02-27T16:52:17.415Z,83.49
2023-02-27T16:55:24.810Z,83.70
2023-02-27T16:58:32.796Z,84.01
2023-02-27T17:01:40.897Z,84.74
2023-02-27T17:04:48.105Z,85.41
2023-02-27T17:07:55.972Z,85.82
2023-02-27T17:11:03.491Z,85.82
2023-02-27T17:14:11.558Z,86.24
2023-02-27T17:17:19.413Z,86.55
2023-02-27T17:20:26.982Z,86.76
2023-02-27T17:23:34.526Z,86.87
2023-02-27T17:26:42.364Z,86.97
2023-02-27T17:29:50.076Z,86.97
2023-02-27T17:32:59.929Z,87.28
2023-02-27T17:35:57.448Z,86.97
2023-02-27T17:39:04.847Z,86.87
2023-02-27T17:42:12.467Z,87.07
2023-02-27T17:45:20.197Z,87.28
2023-02-27T17:48:28.248Z,87.70
2023-02-27T17:51:36.387Z,88.43
2023-02-27T17:54:43.771Z,88.53
2023-02-27T17:57:51.883Z,87.39
2023-02-27T18:00:59.685Z,88.22
2023-02-27T18:04:07.361Z,88.95
2023-02-27T18:07:15.096Z,88.64
2023-02-27T18:10:22.472Z,88.95
2023-02-27T18:13:30.495Z,88.95
2023-02-27T18:16:38.507Z,88.78
2023-02-27T18:19:45.895Z,89.31
2023-02-27T18:22:54.368Z,89.72
2023-02-27T18:26:02.134Z,90.03
2023-02-27T18:29:09.577Z,89.56
2023-02-27T18:32:17.628Z,89.97
2023-02-27T18:35:25.183Z,90.08
2023-02-27T18:38:32.681Z,89.97
2023-02-27T18:41:40.902Z,89.66
2023-02-27T18:44:48.688Z,89.56
2023-02-27T18:47:56.353Z,89.45
2023-02-27T18:51:04.474Z,90.08
2023-02-27T18:54:12.151Z,90.28
2023-02-27T18:57:20.289Z,90.28
2023-02-27T19:00:27.903Z,90.08
2023-02-27T19:03:36.295Z,90.60
2023-02-27T19:06:44.391Z,90.81
2023-02-27T19:09:51.869Z,89.76
2023-02-27T19:12:59.852Z,89.76
2023-02-27T19:16:08.019Z,89.76
2023-02-27T19:19:15.344Z,89.97
2023-02-27T19:22:23.600Z,90.39
2023-02-27T19:25:31.886Z,90.81
2023-02-27T19:28:39.322Z,90.91
2023-02-27T19:31:47.392Z,91.02
2023-02-27T19:34:55.703Z,91.02
2023-02-27T19:38:03.180Z,91.12
2023-02-27T19:41:10.959Z,90.81
2023-02-27T19:44:18.658Z,90.81
2023-02-27T19:47:26.530Z,91.02
2023-02-27T19:50:34.895Z,90.50
2023-02-27T19:53:42.187Z,89.56
2023-02-27T19:56:50.094Z,89.56
2023-02-27T19:59:57.752Z,88.51
2023-02-27T20:03:05.389Z,87.37
2023-02-27T20:06:13.421Z,87.47
2023-02-27T20:09:21.459Z,88.09
2023-02-27T20:12:29.358Z,88.20
2023-02-27T20:15:36.971Z,87.93
2023-02-27T20:18:44.566Z,88.24
2023-02-27T20:21:52.481Z,88.03
2023-02-27T20:25:00.297Z,87.86
2023-02-27T20:28:07.907Z,88.17
2023-02-27T20:31:16.210Z,88.01
2023-02-27T20:34:24.166Z,87.48
2023-02-27T20:37:31.659Z,87.80
2023-02-27T20:40:39.681Z,87.80
2023-02-27T20:43:47.085Z,88.01
2023-02-27T20:46:55.382Z,87.90
2023-02-27T20:50:03.436Z,88.11
2023-02-27T20:53:11.073Z,87.90
2023-02-27T20:56:19.379Z,87.90
2023-02-27T20:59:27.402Z,88.39
2023-02-27T21:02:35.112Z,88.32
2023-02-27T21:05:43.450Z,88.42
2023-02-27T21:08:51.018Z,88.32
2023-02-27T21:11:58.840Z,87.52
2023-02-27T21:15:06.313Z,87.63
2023-02-27T21:18:14.114Z,88.26
2023-02-27T21:21:22.234Z,88.71
2023-02-27T21:24:29.602Z,89.45
2023-02-27T21:27:37.346Z,89.86
2023-02-27T21:30:45.464Z,90.33
2023-02-27T21:33:53.292Z,90.74
2023-02-27T21:37:01.067Z,90.33
2023-02-27T21:40:09.176Z,89.59
2023-02-27T21:43:16.555Z,88.96
2023-02-27T21:46:24.673Z,88.23
2023-02-27T21:49:32.606Z,88.23
2023-02-27T21:52:40.154Z,88.12
2023-02-27T21:55:48.246Z,88.96
2023-02-27T21:58:56.264Z,89.48
2023-02-27T22:02:03.714Z,90.22
2023-02-27T22:05:11.646Z,90.22
2023-02-27T22:08:19.399Z,90.33
2023-02-27T22:11:27.226Z,90.53
2023-02-27T22:14:35.357Z,90.22
2023-02-27T22:17:43.196Z,89.17
2023-02-27T22:20:50.890Z,89.17
2023-02-27T22:23:58.803Z,89.90
2023-02-27T22:27:07.204Z,91.06
2023-02-27T22:30:15.017Z,91.69
2023-02-27T22:33:22.795Z,92.00
2023-02-27T22:36:30.854Z,92.25
2023-02-27T22:39:38.210Z,92.40
2023-02-27T22:42:45.871Z,92.19
2023-02-27T22:45:54.293Z,92.29
2023-02-27T22:49:02.288Z,92.02
2023-02-27T22:52:09.942Z,92.02
2023-02-27T22:55:18.026Z,92.06
2023-02-27T22:58:25.353Z,92.69
2023-02-27T23:01:33.509Z,93.43
2023-02-27T23:04:41.687Z,93.43
2023-02-27T23:07:49.189Z,93.53
2023-02-27T23:10:57.643Z,93.74
2023-02-27T23:14:06.014Z,93.78
2023-02-27T23:17:13.429Z,93.99
2023-02-27T23:20:21.580Z,94.31
2023-02-27T23:23:29.226Z,94.31
2023-02-27T23:26:37.436Z,94.31
2023-02-27T23:29:45.238Z,94.14
2023-02-27T23:32:52.869Z,94.35
2023-02-27T23:36:00.512Z,94.45
2023-02-27T23:39:08.110Z,94.67
2023-02-27T23:42:15.860Z,94.87
2023-02-27T23:45:23.913Z,94.87
2023-02-27T23:48:31.264Z,94.98
2023-02-27T23:51:38.809Z,94.92
2023-02-27T23:54:47.028Z,94.60
2023-02-27T23:57:54.356Z,94.71
